Time;durP1;ratioP1;P1;durP2;ratioP2;P2;SDS_P1;SDS_P2;PMS_P1;PMS_P2;Temp;Humidity;BMP_temperature;BMP_pressure;BME280_temperature;BME280_humidity;BME280_pressure;Samples;Min_cycle;Max_cycle;Signal;HPM_P1;HPM_P2
2022/01/01 00:00:01;;;;;;;29.40;13.40;;;13.50;99.90;;;;;;4949504;28;20028;-91
2022/01/01 00:02:38;;;;;;;28.55;14.30;;;13.50;99.90;;;;;;4936927;29;20095;-89
2022/01/01 00:05:05;;;;;;;28.08;14.35;;;13.50;99.90;;;;;;4938075;29;20563;-90
2022/01/01 00:07:31;;;;;;;28.30;13.80;;;13.60;99.90;;;;;;4953639;28;20036;-91
2022/01/01 00:09:57;;;;;;;29.77;15.27;;;13.60;99.90;;;;;;4937174;29;20477;-91
2022/01/01 00:12:23;;;;;;;32.00;16.25;;;13.50;99.90;;;;;;4937790;29;20086;-91
2022/01/01 00:14:48;;;;;;;33.17;15.93;;;13.60;99.90;;;;;;4937208;29;20130;-91
2022/01/01 00:17:14;;;;;;;35.13;15.57;;;13.60;99.90;;;;;;4937352;29;20103;-90
2022/01/01 00:19:40;;;;;;;27.20;13.63;;;13.60;99.90;;;;;;4937320;29;20032;-91
2022/01/01 00:22:07;;;;;;;29.00;13.10;;;13.60;99.90;;;;;;4937885;29;20494;-91
2022/01/01 00:24:34;;;;;;;29.35;12.10;;;13.50;99.90;;;;;;4953185;28;20031;-91
2022/01/01 00:27:00;;;;;;;29.95;10.75;;;13.60;99.90;;;;;;4937627;29;20099;-91
2022/01/01 00:29:26;;;;;;;24.08;10.57;;;13.60;99.90;;;;;;4936996;29;20163;-90
2022/01/01 00:31:52;;;;;;;27.23;12.32;;;13.60;99.90;;;;;;4953324;28;20401;-91
2022/01/01 00:34:17;;;;;;;22.15;10.98;;;13.60;99.90;;;;;;4937118;29;20031;-91
2022/01/01 00:36:43;;;;;;;27.67;11.00;;;13.60;99.90;;;;;;4937418;29;20579;-91
2022/01/01 00:39:09;;;;;;;20.77;11.27;;;13.70;99.90;;;;;;4936714;29;20156;-91
2022/01/01 00:41:35;;;;;;;25.65;11.40;;;13.70;99.90;;;;;;4937126;29;20099;-89
2022/01/01 00:44:01;;;;;;;29.00;11.80;;;13.60;99.90;;;;;;4953063;28;20087;-90
2022/01/01 00:46:26;;;;;;;24.98;11.63;;;13.50;99.90;;;;;;4937398;29;20574;-90
2022/01/01 00:48:53;;;;;;;26.08;11.75;;;13.50;99.90;;;;;;4952550;28;20036;-91
2022/01/01 00:51:23;;;;;;;27.58;12.05;;;13.50;99.90;;;;;;4952641;28;20024;-91
2022/01/01 00:53:50;;;;;;;23.27;11.55;;;13.50;99.90;;;;;;4936744;29;20039;-91
2022/01/01 00:56:16;;;;;;;28.25;11.90;;;13.50;99.90;;;;;;4953248;28;20414;-91
2022/01/01 00:58:42;;;;;;;26.10;12.00;;;13.50;99.90;;;;;;4952939;28;20028;-90
2022/01/01 01:01:08;;;;;;;23.70;11.32;;;13.50;99.90;;;;;;4936968;29;20027;-90
2022/01/01 01:03:34;;;;;;;24.85;11.40;;;13.50;99.90;;;;;;4952707;28;20091;-89
2022/01/01 01:06:00;;;;;;;20.27;9.25;;;13.50;99.90;;;;;;4952356;28;20032;-91
2022/01/01 01:08:27;;;;;;;21.00;9.07;;;13.50;99.90;;;;;;4937782;29;20043;-90
2022/01/01 01:10:56;;;;;;;20.35;9.57;;;13.50;99.90;;;;;;4936376;29;20027;-91
2022/01/01 01:13:22;;;;;;;22.52;8.77;;;13.50;99.90;;;;;;4951994;28;20051;-90
2022/01/01 01:15:48;;;;;;;20.92;8.57;;;13.50;99.90;;;;;;4936303;29;20035;-91
2022/01/01 01:18:14;;;;;;;19.13;8.65;;;13.50;99.90;;;;;;4952097;28;20038;-90
2022/01/01 01:20:41;;;;;;;27.10;9.68;;;13.50;99.90;;;;;;4936083;29;20497;-91
2022/01/01 01:23:07;;;;;;;20.70;8.18;;;13.50;99.90;;;;;;4936093;29;20153;-90
2022/01/01 01:25:39;;;;;;;21.35;8.23;;;13.50;99.90;;;;;;4951733;28;20036;-91
2022/01/01 01:28:07;;;;;;;19.73;8.80;;;13.50;99.90;;;;;;4935853;29;20106;-90
2022/01/01 01:30:34;;;;;;;24.48;9.38;;;13.50;99.90;;;;;;4935970;29;20032;-91
2022/01/01 01:33:00;;;;;;;20.77;8.75;;;13.60;99.90;;;;;;4952228;28;20032;-90
2022/01/01 01:35:26;;;;;;;21.42;8.43;;;13.50;99.90;;;;;;4951771;28;20038;-91
2022/01/01 01:37:52;;;;;;;21.13;8.82;;;13.50;99.90;;;;;;4952045;28;20091;-90
2022/01/01 01:40:18;;;;;;;20.92;9.20;;;13.50;99.90;;;;;;4935637;29;20094;-91
2022/01/01 01:42:44;;;;;;;21.52;9.15;;;13.50;99.90;;;;;;4935808;29;20119;-91
2022/01/01 01:45:15;;;;;;;21.27;9.82;;;13.50;99.90;;;;;;4951691;28;20130;-91
2022/01/01 01:47:42;;;;;;;22.75;9.95;;;13.50;99.90;;;;;;4951291;29;20031;-90
2022/01/01 01:50:10;;;;;;;17.27;9.07;;;13.40;99.90;;;;;;4951489;28;20402;-91
2022/01/01 01:52:38;;;;;;;25.67;9.43;;;13.50;99.90;;;;;;4951681;28;20466;-90
2022/01/01 01:55:08;;;;;;;24.15;10.38;;;13.40;99.90;;;;;;4936842;29;20023;-91
2022/01/01 01:57:36;;;;;;;21.73;8.80;;;13.50;99.90;;;;;;4951321;28;20122;-91
2022/01/01 02:00:11;;;;;;;20.30;9.05;;;13.50;99.90;;;;;;4951196;29;20036;-90
2022/01/01 02:02:39;;;;;;;22.45;9.45;;;13.40;99.90;;;;;;4936773;29;20040;-91
2022/01/01 02:05:05;;;;;;;23.92;9.63;;;13.50;99.90;;;;;;4951131;28;20028;-91
2022/01/01 02:07:32;;;;;;;18.73;8.38;;;13.50;99.90;;;;;;4935235;29;20039;-91
2022/01/01 02:09:58;;;;;;;21.55;8.55;;;13.50;99.90;;;;;;4951133;29;20094;-90
2022/01/01 02:12:24;;;;;;;22.60;8.82;;;13.50;99.90;;;;;;4935255;29;20454;-90
2022/01/01 02:17:27;;;;;;;25.25;9.75;;;13.50;99.90;;;;;;4935173;29;20044;-91
2022/01/01 02:20:03;;;;;;;19.30;8.30;;;13.40;99.90;;;;;;4951445;29;20383;-90
2022/01/01 02:22:59;;;;;;;20.02;8.50;;;13.50;99.90;;;;;;4950799;29;20453;-90
2022/01/01 02:25:25;;;;;;;18.83;8.90;;;13.40;99.90;;;;;;4917900;29;20131;-91
2022/01/01 02:27:51;;;;;;;24.20;8.98;;;13.40;99.90;;;;;;4950132;28;20114;-90
2022/01/01 02:30:17;;;;;;;21.10;8.73;;;13.40;99.90;;;;;;4934458;29;20390;-91
2022/01/01 02:32:43;;;;;;;25.48;10.38;;;13.50;99.90;;;;;;4934254;29;20043;-90
2022/01/01 02:35:12;;;;;;;20.40;9.82;;;13.50;99.90;;;;;;4950119;28;20129;-91
2022/01/01 02:37:39;;;;;;;25.75;11.55;;;13.50;99.90;;;;;;4950099;28;20529;-90
2022/01/01 02:40:07;;;;;;;26.48;10.82;;;13.40;99.90;;;;;;4934204;29;20032;-91
2022/01/01 02:42:33;;;;;;;22.88;10.23;;;13.50;99.90;;;;;;4950203;29;20031;-91
2022/01/01 02:45:00;;;;;;;23.48;10.30;;;13.40;99.90;;;;;;4950307;28;20043;-90
2022/01/01 02:47:26;;;;;;;23.48;9.90;;;13.50;99.90;;;;;;4950030;28;20096;-90
2022/01/01 02:49:51;;;;;;;19.58;9.90;;;13.50;99.90;;;;;;4933954;29;20059;-91
2022/01/01 02:52:17;;;;;;;26.67;9.98;;;13.40;99.90;;;;;;4934103;29;20030;-90
2022/01/01 02:54:43;;;;;;;25.33;9.70;;;13.40;99.90;;;;;;4949994;28;20059;-90
2022/01/01 02:57:09;;;;;;;20.70;9.55;;;13.40;99.90;;;;;;4934158;29;20493;-91
2022/01/01 02:59:35;;;;;;;25.45;9.82;;;13.40;99.90;;;;;;4933681;29;20039;-90
2022/01/01 03:02:01;;;;;;;21.98;9.50;;;13.40;99.90;;;;;;4950007;28;20401;-90
2022/01/01 03:04:26;;;;;;;21.13;9.57;;;13.40;99.90;;;;;;4933785;29;20055;-91
2022/01/01 03:06:55;;;;;;;20.67;9.65;;;13.40;99.90;;;;;;4933737;29;20040;-90
2022/01/01 03:09:23;;;;;;;20.97;9.27;;;13.40;99.90;;;;;;4949717;28;20027;-91
2022/01/01 03:11:49;;;;;;;23.10;9.85;;;13.40;99.90;;;;;;4949717;28;20505;-90
2022/01/01 03:14:17;;;;;;;21.50;9.32;;;13.40;99.90;;;;;;4949579;28;20082;-91
2022/01/01 03:16:45;;;;;;;23.15;9.88;;;13.40;99.90;;;;;;4949931;28;20032;-91
2022/01/01 03:19:11;;;;;;;18.05;9.32;;;13.40;99.90;;;;;;4949307;28;20063;-90
2022/01/01 03:21:36;;;;;;;17.65;8.00;;;13.40;99.90;;;;;;4949766;28;20041;-90
2022/01/01 03:24:02;;;;;;;19.95;9.43;;;13.40;99.90;;;;;;4933995;29;20035;-90
2022/01/01 03:26:28;;;;;;;22.50;10.35;;;13.30;99.90;;;;;;4949527;28;20491;-90
2022/01/01 03:28:54;;;;;;;18.90;9.85;;;13.30;99.90;;;;;;4933290;29;20028;-91
2022/01/01 03:31:20;;;;;;;24.50;10.57;;;13.30;99.90;;;;;;4933534;29;20031;-90
2022/01/01 03:33:45;;;;;;;20.85;9.77;;;13.30;99.90;;;;;;4933835;29;20043;-90
2022/01/01 03:36:11;;;;;;;25.25;10.57;;;13.30;99.90;;;;;;4935839;29;20035;-91
2022/01/01 03:38:37;;;;;;;22.35;9.38;;;13.30;99.90;;;;;;4953042;29;20032;-91
2022/01/01 03:41:03;;;;;;;20.45;8.98;;;13.30;99.90;;;;;;4937493;29;20067;-90
2022/01/01 03:43:29;;;;;;;23.35;8.32;;;13.30;99.90;;;;;;4937274;29;20074;-90
2022/01/01 03:45:54;;;;;;;20.75;8.23;;;13.40;99.90;;;;;;4937247;29;20032;-90
2022/01/01 03:48:20;;;;;;;20.10;8.85;;;13.40;99.90;;;;;;4936804;29;20031;-90
2022/01/01 03:50:46;;;;;;;18.05;8.20;;;13.30;99.90;;;;;;4937391;29;20456;-90
2022/01/01 03:53:12;;;;;;;19.50;7.47;;;13.40;99.90;;;;;;4937278;29;20485;-90
2022/01/01 03:55:38;;;;;;;14.70;6.50;;;13.30;99.90;;;;;;4937234;29;20717;-91
2022/01/01 03:58:03;;;;;;;15.75;6.80;;;13.30;99.90;;;;;;4936849;29;20031;-90
2022/01/01 04:00:29;;;;;;;16.73;6.88;;;13.40;99.90;;;;;;4937125;29;20450;-90
2022/01/01 04:03:08;;;;;;;18.05;7.57;;;13.30;99.90;;;;;;4953017;28;20038;-90
2022/01/01 04:05:35;;;;;;;26.63;9.23;;;13.30;99.90;;;;;;4937030;29;20146;-91
2022/01/01 04:08:03;;;;;;;24.98;11.13;;;13.30;99.90;;;;;;4952507;29;20569;-90
2022/01/01 04:10:31;;;;;;;23.10;10.27;;;13.30;99.90;;;;;;4952800;28;20127;-91
2022/01/01 04:13:00;;;;;;;20.17;10.23;;;13.30;99.90;;;;;;4952890;28;20035;-90
2022/01/01 04:15:27;;;;;;;23.25;11.40;;;13.30;99.90;;;;;;4936896;29;20038;-90
2022/01/01 04:18:02;;;;;;;24.75;11.27;;;13.30;99.90;;;;;;4952473;28;20036;-91
2022/01/01 04:20:29;;;;;;;20.45;10.50;;;13.20;99.90;;;;;;4936784;29;20433;-91
2022/01/01 04:22:57;;;;;;;20.77;10.50;;;13.30;99.90;;;;;;4936648;29;20106;-90
2022/01/01 04:25:24;;;;;;;22.48;10.43;;;13.20;99.90;;;;;;4936726;29;20375;-91
2022/01/01 04:27:52;;;;;;;20.70;9.93;;;13.20;99.90;;;;;;4936247;29;20550;-90
2022/01/01 04:30:18;;;;;;;20.02;9.80;;;13.20;99.90;;;;;;4952489;28;20055;-91
2022/01/01 04:32:45;;;;;;;19.90;10.27;;;13.20;99.90;;;;;;4936525;29;20030;-91
2022/01/01 04:35:11;;;;;;;21.52;10.07;;;13.20;99.90;;;;;;4936449;29;20027;-91
2022/01/01 04:37:38;;;;;;;19.95;9.80;;;13.20;99.90;;;;;;4952015;28;20504;-90
2022/01/01 04:40:08;;;;;;;18.27;9.68;;;13.20;99.90;;;;;;4952315;28;20039;-90
2022/01/01 04:42:34;;;;;;;21.70;9.63;;;13.20;99.90;;;;;;4952393;28;20070;-90
2022/01/01 04:45:00;;;;;;;20.35;8.75;;;13.10;99.90;;;;;;4936585;29;20040;-90
2022/01/01 04:47:26;;;;;;;19.23;8.77;;;13.10;99.90;;;;;;4951396;28;20032;-90
2022/01/01 04:49:52;;;;;;;19.45;8.65;;;13.20;99.90;;;;;;4951974;28;20384;-91
2022/01/01 04:52:18;;;;;;;19.50;8.65;;;13.10;99.90;;;;;;4936064;29;20032;-90
2022/01/01 04:54:44;;;;;;;23.00;8.90;;;13.10;99.90;;;;;;4952235;28;20038;-90
2022/01/01 04:57:11;;;;;;;22.05;8.43;;;13.20;99.90;;;;;;4952067;28;20482;-91
2022/01/01 04:59:38;;;;;;;15.73;7.97;;;13.20;99.90;;;;;;4951582;28;20066;-90
2022/01/01 05:02:04;;;;;;;19.30;8.63;;;13.10;99.90;;;;;;4952051;28;20055;-90
2022/01/01 05:04:30;;;;;;;16.27;8.60;;;13.10;99.90;;;;;;4936047;29;20028;-90
2022/01/01 05:06:56;;;;;;;20.77;7.78;;;13.20;99.90;;;;;;4937265;29;20410;-90
2022/01/01 05:09:23;;;;;;;19.15;7.70;;;13.20;99.90;;;;;;4935599;29;20505;-91
2022/01/01 05:11:49;;;;;;;15.63;7.32;;;13.20;99.90;;;;;;4951953;29;20067;-90
2022/01/01 05:14:16;;;;;;;15.82;6.97;;;13.20;99.90;;;;;;4951766;28;20510;-90
2022/01/01 05:16:42;;;;;;;17.42;6.90;;;13.20;99.90;;;;;;4935975;29;20039;-90
2022/01/01 05:19:08;;;;;;;19.98;8.05;;;13.20;99.90;;;;;;4951281;28;20028;-91
2022/01/01 05:21:35;;;;;;;15.88;6.68;;;13.20;99.90;;;;;;4951501;28;20530;-90
2022/01/01 05:24:04;;;;;;;17.05;6.85;;;13.20;99.90;;;;;;4951631;28;20028;-91
2022/01/01 05:26:30;;;;;;;14.50;7.47;;;13.20;99.90;;;;;;4936008;29;20035;-91
2022/01/01 05:28:56;;;;;;;19.50;7.05;;;13.30;99.90;;;;;;4952218;28;20040;-91
2022/01/01 05:31:22;;;;;;;16.73;6.95;;;13.30;99.90;;;;;;4952018;28;20054;-90
2022/01/01 05:33:52;;;;;;;14.73;6.55;;;13.30;99.90;;;;;;4935619;29;20043;-91
2022/01/01 05:36:19;;;;;;;16.80;7.10;;;13.30;99.90;;;;;;4951653;28;20040;-91
2022/01/01 05:38:46;;;;;;;19.73;7.65;;;13.30;99.90;;;;;;4935697;29;20039;-91
2022/01/01 05:41:12;;;;;;;17.20;7.57;;;13.30;99.90;;;;;;4951539;28;20075;-90
2022/01/01 05:43:38;;;;;;;23.30;7.93;;;13.30;99.90;;;;;;4951583;28;20032;-90
2022/01/01 05:46:05;;;;;;;20.23;7.68;;;13.30;99.90;;;;;;4951391;28;20059;-90
2022/01/01 05:48:31;;;;;;;19.35;8.48;;;13.20;99.90;;;;;;4951630;28;20114;-91
2022/01/01 05:50:56;;;;;;;15.77;7.55;;;13.20;99.90;;;;;;4951301;29;20034;-91
2022/01/01 05:53:25;;;;;;;17.08;7.75;;;13.30;99.90;;;;;;4935700;29;20027;-91
2022/01/01 05:55:51;;;;;;;16.58;7.13;;;13.20;99.90;;;;;;4935460;29;20103;-90
2022/01/01 05:58:17;;;;;;;16.90;7.57;;;13.20;99.90;;;;;;4951229;28;20031;-90
2022/01/01 06:00:43;;;;;;;16.13;7.57;;;13.20;99.90;;;;;;4951207;28;20036;-91
2022/01/01 06:03:09;;;;;;;14.82;6.72;;;13.20;99.90;;;;;;4951474;28;20418;-91
2022/01/01 06:05:35;;;;;;;13.38;6.53;;;13.20;99.90;;;;;;4951110;28;20028;-90
2022/01/01 06:08:02;;;;;;;16.88;6.75;;;13.20;99.90;;;;;;4935073;29;20043;-91
2022/01/01 06:10:28;;;;;;;13.63;7.40;;;13.20;99.90;;;;;;4951004;28;20027;-91
2022/01/01 06:12:54;;;;;;;17.92;7.10;;;13.20;99.90;;;;;;4935268;29;20122;-90
2022/01/01 06:15:21;;;;;;;15.60;6.68;;;13.20;99.90;;;;;;4951267;28;20110;-90
2022/01/01 06:17:47;;;;;;;16.35;6.18;;;13.10;99.90;;;;;;4950969;28;20038;-91
2022/01/01 06:20:13;;;;;;;14.13;6.70;;;13.20;99.90;;;;;;4934968;29;20035;-91
2022/01/01 06:22:39;;;;;;;16.13;7.03;;;13.20;99.90;;;;;;4951111;28;20387;-91
2022/01/01 06:25:06;;;;;;;14.50;6.18;;;13.20;99.90;;;;;;4950768;28;20116;-91
2022/01/01 06:27:32;;;;;;;18.15;6.80;;;13.20;99.90;;;;;;4934910;29;20039;-90
2022/01/01 06:29:58;;;;;;;17.30;6.10;;;13.20;99.90;;;;;;4934797;29;20028;-91
2022/01/01 06:32:24;;;;;;;12.70;5.93;;;13.10;99.90;;;;;;4950620;28;20446;-91
2022/01/01 06:34:50;;;;;;;13.18;5.95;;;13.10;99.90;;;;;;4934518;29;20042;-91
2022/01/01 06:37:17;;;;;;;13.20;5.90;;;13.20;99.90;;;;;;4934806;29;20390;-91
2022/01/01 06:39:43;;;;;;;16.02;6.70;;;13.10;99.90;;;;;;4950399;28;20398;-91
2022/01/01 06:42:09;;;;;;;21.13;5.50;;;13.20;99.90;;;;;;4934566;29;20051;-90
2022/01/01 06:44:35;;;;;;;15.38;6.80;;;13.10;99.90;;;;;;4950545;28;20092;-90
2022/01/01 06:47:01;;;;;;;12.52;5.60;;;13.20;99.90;;;;;;4950542;28;20114;-90
2022/01/01 06:49:27;;;;;;;14.85;5.90;;;13.20;99.90;;;;;;4934526;29;20070;-90
2022/01/01 06:51:53;;;;;;;12.60;4.40;;;13.10;99.90;;;;;;4934450;29;20028;-90
2022/01/01 06:54:18;;;;;;;14.75;5.18;;;13.20;99.90;;;;;;4934080;29;20035;-90
2022/01/01 06:56:44;;;;;;;13.18;4.65;;;13.20;99.90;;;;;;4934261;29;20055;-90
2022/01/01 06:59:10;;;;;;;14.68;5.07;;;13.10;99.90;;;;;;4949683;28;20032;-91
2022/01/01 07:01:37;;;;;;;12.43;5.05;;;13.10;99.90;;;;;;4949864;28;20028;-91
2022/01/01 07:04:04;;;;;;;12.00;4.20;;;13.10;99.90;;;;;;4950203;28;20162;-90
2022/01/01 07:06:31;;;;;;;9.65;4.07;;;13.20;99.90;;;;;;4949958;28;20403;-91
2022/01/01 07:08:56;;;;;;;9.07;4.28;;;13.20;99.90;;;;;;4950013;28;20058;-91
2022/01/01 07:11:22;;;;;;;17.23;4.68;;;13.20;99.90;;;;;;4934191;29;20023;-91
2022/01/01 07:13:48;;;;;;;11.25;3.60;;;13.20;99.90;;;;;;4918165;29;20090;-91
2022/01/01 07:16:14;;;;;;;10.60;3.90;;;13.20;99.90;;;;;;4934128;29;20337;-90
2022/01/01 07:18:41;;;;;;;9.60;3.67;;;13.20;99.90;;;;;;4950095;28;20379;-90
2022/01/01 07:21:07;;;;;;;10.52;3.80;;;13.20;99.90;;;;;;4933972;29;20042;-91
2022/01/01 07:23:33;;;;;;;10.20;4.32;;;13.10;99.90;;;;;;4934004;29;20040;-90
2022/01/01 07:26:01;;;;;;;13.23;3.95;;;13.20;99.90;;;;;;4934171;29;20126;-91
2022/01/01 07:28:27;;;;;;;11.20;3.95;;;13.20;99.90;;;;;;4949850;28;20130;-91
2022/01/01 07:30:53;;;;;;;12.45;4.30;;;13.20;99.90;;;;;;4934009;29;20131;-91
2022/01/01 07:33:19;;;;;;;12.75;4.55;;;13.20;99.90;;;;;;4933877;29;20038;-91
2022/01/01 07:35:44;;;;;;;12.88;5.03;;;13.20;99.90;;;;;;4934228;29;20032;-91
2022/01/01 07:38:10;;;;;;;9.48;4.15;;;13.20;99.90;;;;;;4950025;28;20039;-90
2022/01/01 07:40:37;;;;;;;12.65;3.90;;;13.20;99.90;;;;;;4949823;29;20032;-91
2022/01/01 07:43:12;;;;;;;7.30;3.28;;;13.10;99.90;;;;;;4949901;28;20450;-90
2022/01/01 07:45:39;;;;;;;14.45;3.58;;;13.20;99.90;;;;;;4933971;29;20031;-91
2022/01/01 07:48:06;;;;;;;9.50;3.10;;;13.10;99.90;;;;;;4949711;28;20126;-90
2022/01/01 07:50:32;;;;;;;9.50;2.97;;;13.20;99.90;;;;;;4949871;28;20031;-91
2022/01/01 07:52:58;;;;;;;10.05;3.72;;;13.10;99.90;;;;;;4949842;28;20082;-91
2022/01/01 07:55:23;;;;;;;11.13;3.55;;;13.10;99.90;;;;;;4949877;28;20063;-92
2022/01/01 07:57:49;;;;;;;11.80;3.65;;;13.10;99.90;;;;;;4933958;29;20474;-91
2022/01/01 08:00:15;;;;;;;10.27;3.10;;;13.10;99.90;;;;;;4934049;29;20039;-89
2022/01/01 08:02:42;;;;;;;10.65;2.80;;;13.10;99.90;;;;;;4949619;28;20059;-91
2022/01/01 08:05:09;;;;;;;9.65;2.97;;;13.10;99.90;;;;;;4949661;28;20042;-91
2022/01/01 08:07:35;;;;;;;10.93;3.35;;;13.20;99.90;;;;;;4949863;28;20498;-91
2022/01/01 08:10:01;;;;;;;10.23;4.25;;;13.10;99.90;;;;;;4949615;29;20039;-91
2022/01/01 08:12:27;;;;;;;9.18;3.15;;;13.10;99.90;;;;;;4933539;29;20517;-91
2022/01/01 08:14:56;;;;;;;10.77;3.83;;;13.20;99.90;;;;;;4933498;29;20028;-91
2022/01/01 08:17:23;;;;;;;9.45;3.80;;;13.20;99.90;;;;;;4949615;28;20423;-90
2022/01/01 08:19:50;;;;;;;7.90;3.20;;;13.20;99.90;;;;;;5014417;23;20047;-88
2022/01/01 08:22:15;;;;;;;8.25;3.25;;;13.20;99.90;;;;;;4956625;28;20035;-90
2022/01/01 08:24:42;;;;;;;9.15;3.40;;;13.20;99.90;;;;;;4944444;28;20089;-90
2022/01/01 08:27:08;;;;;;;9.63;3.08;;;13.20;99.90;;;;;;4943483;28;20046;-90
2022/01/01 08:29:34;;;;;;;11.27;3.10;;;13.20;99.90;;;;;;4942807;28;20031;-89
2022/01/01 08:32:00;;;;;;;9.18;2.95;;;13.20;99.90;;;;;;4959010;28;20126;-90
2022/01/01 08:34:26;;;;;;;10.60;3.22;;;13.20;99.90;;;;;;4943229;28;20119;-90
2022/01/01 08:36:54;;;;;;;11.88;3.22;;;13.20;99.90;;;;;;4953192;28;20037;-90
2022/01/01 08:39:20;;;;;;;8.55;2.95;;;13.20;99.90;;;;;;4951515;28;20077;-90
2022/01/01 08:41:52;;;;;;;10.15;3.20;;;13.20;99.90;;;;;;4951662;28;20528;-90
2022/01/01 08:44:18;;;;;;;12.18;3.15;;;13.20;99.90;;;;;;4966700;28;20030;-90
2022/01/01 08:47:48;;;;;;;9.63;2.65;;;13.20;99.90;;;;;;4951892;28;20031;-89
2022/01/01 08:50:14;;;;;;;10.90;3.13;;;13.20;99.90;;;;;;4948803;28;20031;-90
2022/01/01 08:52:42;;;;;;;10.20;2.97;;;13.20;99.90;;;;;;4949436;28;20038;-90
2022/01/01 08:55:14;;;;;;;8.85;2.95;;;13.20;99.90;;;;;;4949002;28;20031;-90
2022/01/01 08:57:52;;;;;;;10.65;2.70;;;13.20;99.90;;;;;;4948744;28;20057;-90
2022/01/01 09:00:18;;;;;;;7.82;2.80;;;13.20;99.90;;;;;;4947135;28;20031;-90
2022/01/01 09:03:08;;;;;;;12.50;3.28;;;13.20;99.90;;;;;;4948488;28;20405;-89
2022/01/01 09:05:45;;;;;;;9.10;3.03;;;13.10;99.90;;;;;;4950792;28;20034;-90
2022/01/01 09:09:04;;;;;;;;;;;;;;;;;;;;;
2022/01/01 09:11:40;;;;;;;8.82;2.55;;;13.20;99.90;;;;;;4963412;28;20058;-91
2022/01/01 09:14:06;;;;;;;7.85;3.00;;;13.20;99.90;;;;;;4943455;28;20464;-91
2022/01/01 09:16:38;;;;;;;9.77;2.95;;;13.20;99.90;;;;;;4960095;28;20031;-92
2022/01/01 09:19:05;;;;;;;10.55;3.00;;;13.20;99.90;;;;;;4946012;28;20031;-91
2022/01/01 09:21:31;;;;;;;8.32;3.20;;;13.20;99.90;;;;;;4944171;28;20045;-91
2022/01/01 09:23:57;;;;;;;9.20;3.30;;;13.30;99.90;;;;;;4942964;28;20038;-92
2022/01/01 09:26:24;;;;;;;10.18;3.00;;;13.20;99.90;;;;;;4944437;28;20085;-92
2022/01/01 09:28:49;;;;;;;10.18;3.20;;;13.30;99.90;;;;;;4945881;28;20117;-91
2022/01/01 09:31:16;;;;;;;12.02;3.30;;;13.30;99.90;;;;;;4948089;28;20058;-92
2022/01/01 09:33:48;;;;;;;10.05;3.03;;;13.30;99.90;;;;;;4944230;28;20023;-92
2022/01/01 09:36:17;;;;;;;7.28;2.83;;;13.30;99.90;;;;;;4942798;28;20040;-92
2022/01/01 09:38:45;;;;;;;8.35;3.22;;;13.30;99.90;;;;;;4943264;28;20031;-92
2022/01/01 09:41:16;;;;;;;9.38;2.97;;;13.30;99.90;;;;;;4958002;28;20050;-93
2022/01/01 09:43:46;;;;;;;7.20;2.70;;;13.40;99.90;;;;;;4976580;28;20030;-90
2022/01/01 09:46:13;;;;;;;7.32;3.47;;;13.40;99.90;;;;;;4944089;28;20030;-89
2022/01/01 09:48:39;;;;;;;12.07;3.50;;;13.40;99.90;;;;;;4951768;28;20588;-90
2022/01/01 09:51:06;;;;;;;10.10;2.90;;;13.40;99.90;;;;;;4963732;28;20054;-90
2022/01/01 09:53:33;;;;;;;7.85;2.95;;;13.40;99.90;;;;;;4963895;28;20386;-91
2022/01/01 09:56:01;;;;;;;10.38;2.90;;;13.50;99.90;;;;;;4954514;28;20041;-90
2022/01/01 09:58:28;;;;;;;10.68;2.83;;;13.50;99.90;;;;;;4959050;28;20081;-91
2022/01/01 10:00:55;;;;;;;10.57;3.33;;;13.50;99.90;;;;;;4941439;28;20027;-91
2022/01/01 10:03:37;;;;;;;7.57;2.83;;;13.50;99.90;;;;;;4941431;28;20019;-91
2022/01/01 10:06:09;;;;;;;11.52;2.85;;;13.50;99.90;;;;;;4942223;28;20414;-92
2022/01/01 10:08:41;;;;;;;11.07;3.40;;;13.50;99.90;;;;;;4941272;28;20041;-92
2022/01/01 10:11:08;;;;;;;10.25;2.92;;;13.60;99.90;;;;;;4941598;28;20058;-93
2022/01/01 10:13:39;;;;;;;12.70;4.22;;;13.60;99.90;;;;;;4941633;28;20389;-92
2022/01/01 10:16:07;;;;;;;8.27;2.33;;;13.70;99.90;;;;;;4941689;28;20236;-92
2022/01/01 10:18:36;;;;;;;7.30;2.42;;;13.70;99.90;;;;;;4941521;28;20385;-92
2022/01/01 10:21:08;;;;;;;11.50;2.60;;;13.70;99.90;;;;;;4941420;28;20500;-92
2022/01/01 10:23:35;;;;;;;9.43;2.78;;;13.70;99.90;;;;;;4941855;28;20043;-90
2022/01/01 10:29:16;;;;;;;10.82;2.50;;;13.80;99.90;;;;;;4959249;28;20050;-90
2022/01/01 10:31:56;;;;;;;7.45;2.35;;;13.90;99.90;;;;;;4959124;28;20401;-90
2022/01/01 10:34:25;;;;;;;12.55;2.78;;;13.90;99.90;;;;;;4960045;28;20058;-91
2022/01/01 10:36:52;;;;;;;10.07;2.72;;;13.90;99.90;;;;;;4942904;28;20031;-89
2022/01/01 10:39:21;;;;;;;8.82;2.65;;;13.90;99.90;;;;;;4941271;28;20031;-90
2022/01/01 10:41:50;;;;;;;7.28;2.28;;;13.90;99.90;;;;;;4941091;28;20430;-90
2022/01/01 10:44:20;;;;;;;8.65;2.40;;;14.00;99.90;;;;;;4941266;28;20042;-90
2022/01/01 10:46:46;;;;;;;6.15;2.30;;;14.00;99.90;;;;;;4940558;28;20552;-90
2022/01/01 10:52:23;;;;;;;8.38;2.35;;;14.00;99.90;;;;;;4956620;28;20035;-90
2022/01/01 10:55:06;;;;;;;10.05;2.33;;;14.00;99.90;;;;;;4940801;28;20477;-90
2022/01/01 10:57:36;;;;;;;7.20;2.58;;;14.00;99.90;;;;;;4940773;28;20089;-89
2022/01/01 11:00:24;;;;;;;6.50;2.28;;;14.00;99.90;;;;;;4940896;28;20038;-90
2022/01/01 11:02:56;;;;;;;8.45;2.53;;;14.00;99.90;;;;;;4956480;28;20045;-90
2022/01/01 11:05:38;;;;;;;10.52;2.58;;;14.00;99.90;;;;;;4940717;28;20035;-90
2022/01/01 11:08:09;;;;;;;6.85;2.33;;;14.00;99.90;;;;;;4940445;28;20421;-90
2022/01/01 11:10:37;;;;;;;6.93;2.05;;;14.00;99.90;;;;;;4956183;28;20473;-91
2022/01/01 11:13:05;;;;;;;8.13;2.92;;;14.00;99.90;;;;;;4940391;28;20030;-90
2022/01/01 11:15:31;;;;;;;7.78;2.03;;;14.00;99.90;;;;;;4940555;28;20473;-90
2022/01/01 11:17:58;;;;;;;8.15;2.35;;;14.10;99.90;;;;;;4940142;28;20478;-90
2022/01/01 11:20:33;;;;;;;8.40;2.90;;;14.10;99.90;;;;;;4940409;28;20042;-90
2022/01/01 11:23:05;;;;;;;8.82;2.90;;;14.10;99.90;;;;;;4956070;28;20031;-90
2022/01/01 11:25:33;;;;;;;10.30;3.15;;;14.10;99.90;;;;;;4940320;28;20042;-90
2022/01/01 11:28:00;;;;;;;10.85;2.88;;;14.10;99.90;;;;;;4940467;28;20107;-90
2022/01/01 11:30:30;;;;;;;11.45;3.58;;;14.20;99.90;;;;;;4940249;28;20476;-90
2022/01/01 11:33:12;;;;;;;7.25;2.60;;;14.20;99.90;;;;;;4940273;28;20037;-89
2022/01/01 11:35:41;;;;;;;9.13;3.08;;;14.20;99.90;;;;;;4940019;28;20027;-90
2022/01/01 11:38:09;;;;;;;7.57;3.42;;;14.30;99.90;;;;;;4939603;28;20035;-90
2022/01/01 11:40:58;;;;;;;9.70;2.40;;;14.30;99.90;;;;;;4940109;28;20035;-90
2022/01/01 11:43:41;;;;;;;;;;;14.40;99.90;;;;;;4956587;28;20039;-90
2022/01/01 11:46:18;;;;;;;6.57;2.75;;;14.40;99.90;;;;;;4956452;28;19921;-90
2022/01/01 11:48:49;;;;;;;7.20;2.10;;;14.40;99.90;;;;;;4939853;28;20034;-90
2022/01/01 11:51:22;;;;;;;6.65;2.17;;;14.40;99.90;;;;;;4941112;28;20054;-92
2022/01/01 11:54:07;;;;;;;5.55;2.15;;;14.40;99.90;;;;;;4940723;28;20107;-92
2022/01/01 11:56:50;;;;;;;10.75;3.00;;;14.50;99.90;;;;;;4941482;28;20026;-92
2022/01/01 11:59:25;;;;;;;7.10;2.35;;;14.50;99.90;;;;;;4961278;28;20413;-90
2022/01/01 12:01:53;;;;;;;7.07;2.50;;;14.40;99.90;;;;;;4944415;28;20031;-92
2022/01/01 12:04:28;;;;;;;6.40;2.20;;;14.40;99.90;;;;;;4944825;28;20019;-90
2022/01/01 12:07:10;;;;;;;9.70;3.28;;;14.40;99.90;;;;;;4978289;28;20061;-90
2022/01/01 12:10:01;;;;;;;7.70;2.40;;;14.50;99.90;;;;;;4945924;28;20061;-90
2022/01/01 12:12:45;;;;;;;11.55;2.38;;;14.40;99.90;;;;;;4945247;28;20117;-90
2022/01/01 12:15:21;;;;;;;6.90;2.38;;;14.50;99.90;;;;;;4944791;28;20034;-90
2022/01/01 12:18:01;;;;;;;7.68;2.47;;;14.50;99.90;;;;;;4944153;28;20505;-90
2022/01/01 12:20:50;;;;;;;6.10;2.28;;;14.40;99.90;;;;;;4944540;28;20034;-89
2022/01/01 12:23:21;;;;;;;6.40;1.95;;;14.50;99.90;;;;;;4944770;28;20065;-90
2022/01/01 12:25:52;;;;;;;10.40;2.55;;;14.40;99.90;;;;;;4945125;28;20043;-91
2022/01/01 12:28:44;;;;;;;9.18;2.58;;;14.40;99.90;;;;;;4960221;28;20035;-90
2022/01/01 12:31:43;;;;;;;4.55;2.00;;;14.50;99.90;;;;;;4942614;28;20059;-90
2022/01/01 12:34:23;;;;;;;7.88;2.42;;;14.50;99.90;;;;;;4944932;28;20050;-90
2022/01/01 12:37:07;;;;;;;6.82;2.13;;;14.60;99.90;;;;;;4945663;28;20308;-90
2022/01/01 12:40:11;;;;;;;7.13;2.00;;;14.60;99.90;;;;;;4943102;28;20039;-90
2022/01/01 12:42:45;;;;;;;4.93;1.98;;;14.60;99.90;;;;;;4942857;28;20277;-90
2022/01/01 12:45:14;;;;;;;7.47;2.00;;;14.60;99.90;;;;;;4943232;28;20027;-89
2022/01/01 12:47:40;;;;;;;6.38;2.05;;;14.60;99.90;;;;;;4942821;28;20034;-90
2022/01/01 12:50:07;;;;;;;5.13;2.38;;;14.60;99.90;;;;;;4943211;28;20474;-90
2022/01/01 12:52:32;;;;;;;7.10;1.90;;;14.50;99.90;;;;;;4943214;28;20035;-90
2022/01/01 12:54:59;;;;;;;6.65;2.35;;;14.60;99.90;;;;;;4943137;28;20039;-89